Αναφορές Αεροδρομίων

 

KSJC - San Jose, California, USA
Distance from station: ΒΑ 14km
Ενημερώθηκε: 30/01/2023 12:53
Αίθριος
Αίθριος
 Ανεμος από calm
Ανεμος: Απνοια
Θερμοκρασία: 6°C
Σημείο Δρόσου: -8°C
Υγρασία: 36%
Βαρόμετρο: 1015.2 hPa
Clouds: Αίθριος
Visibility: 16 km
2023/01/30 10:53 KSJC 301053Z AUTO 00000KT 10SM CLR 06/M08 A2998 RMK AO2 SLP153 T00611078
KNUQ - Moffett Nas/Mtn, California, USA
Distance from station: Β 14km
Ενημερώθηκε: 30/01/2023 13:10
Αίθριος
Αίθριος
 Ανεμος από ΒΒΑ
Ανεμος: ΒΒΑ 24 km/h
Θερμοκρασία: 6°C
Wind Chill: 2°C
Σημείο Δρόσου: -8°C
Υγρασία: 36%
Βαρόμετρο: 1015.9 hPa
Clouds: Αίθριος
Visibility: 16 km
2023/01/30 11:10 KNUQ 301110Z AUTO 02013KT 10SM CLR 06/M08 A3000 RMK AO2
 
KPAO - Palo Alto, California, USA
Distance from station: ΒΒΔ 23km
Ενημερώθηκε: 30/01/2023 06:47
NOT Current
Μερικώς νεφελώδης
Μερικώς νεφελώδης
 Ανεμος από Β
Ανεμος: Β 6 km/h
Θερμοκρασία: 8°C
Σημείο Δρόσου: 4°C
Υγρασία: 76%
Βαρόμετρο: 1012.9 hPa
Clouds: Μερικώς νεφελώδης
Visibility: 16 km
Cloud details: Μερικώς νεφελώδης 914 m
2023/01/30 04:47 KPAO 300447Z 35003KT 10SM SCT030 08/04 A2991 RMK LAST
KRHV - San Jose/Reid, California, USA
Distance from station: ΑΒΑ 19km
Ενημερώθηκε: 30/01/2023 01:51
NOT Current
Σχεδόν νεφελώδης
Σχεδόν νεφελώδης
 Ανεμος από Δ
Ανεμος: Δ 13 km/h
Θερμοκρασία: 10°C
Wind Chill: 8°C
Σημείο Δρόσου: 3°C
Υγρασία: 62%
Βαρόμετρο: 1009.8 hPa
Clouds: Σχεδόν νεφελώδης
Visibility: 16 km
Cloud details: Μερικώς νεφελώδης 762 m
Σχεδόν νεφελώδης 1372 m
Σχεδόν νεφελώδης 2134 m
2023/01/29 23:51 KRHV 292351Z 28007KT 10SM SCT025 BKN045 BKN070 10/03 A2982
 
KOAK - Oakland, California, USA
Distance from station: ΒΒΔ 50km
Ενημερώθηκε: 30/01/2023 12:53
Αίθριος
Αίθριος
 Ανεμος από varies
Ανεμος: varies 9 km/h
Θερμοκρασία: 6°C
Wind Chill: 4°C
Σημείο Δρόσου: -8°C
Υγρασία: 36%
Βαρόμετρο: 1015.6 hPa
Clouds: Αίθριος
Visibility: 16 km
2023/01/30 10:53 KOAK 301053Z VRB05KT 10SM CLR 06/M08 A2999 RMK AO2 SLP155 T00611083
KSQL - San Carlos Airpo, California, USA
Distance from station: ΒΔ 34km
Ενημερώθηκε: 30/01/2023 13:15

 Ανεμος από Α
Ανεμος: Α 11 km/h
Θερμοκρασία: 5°C
Wind Chill: 2°C
Σημείο Δρόσου: -3°C
Υγρασία: 57%
Βαρόμετρο: 1015.9 hPa
Visibility: 16 km
2023/01/30 11:15 KSQL 301115Z AUTO 09006KT 10SM 05/M03 A3000 RMK AO2
 
KSFO - San Francisco, California, USA
Distance from station: ΒΔ 49km
Ενημερώθηκε: 30/01/2023 12:56
Αίθριος
Αίθριος
 Ανεμος από ΑΒΑ
Ανεμος: ΑΒΑ 26 km/h
Θερμοκρασία: 9°C
Wind Chill: 6°C
Σημείο Δρόσου: -4°C
Υγρασία: 40%
Βαρόμετρο: 1015.2 hPa
Clouds: Αίθριος
Visibility: 16 km
2023/01/30 10:56 KSFO 301056Z 06014KT 10SM CLR 09/M04 A2998 RMK AO2 SLP152 T00891039 $
KE16 - San Martin, California, USA
Distance from station: ΑΝΑ 43km
Ενημερώθηκε: 30/01/2023 13:15
Μερικώς νεφελώδης
Μερικώς νεφελώδης
 Ανεμος από Β
Ανεμος: Β 11 km/h
Θερμοκρασία: 3°C
Wind Chill: 0°C
Σημείο Δρόσου: -2°C
Υγρασία: 70%
Βαρόμετρο: 1015.6 hPa
Clouds: Μερικώς νεφελώδης
Visibility: 16 km
Cloud details: Μερικώς νεφελώδης 1524 m
2023/01/30 11:15 KE16 301115Z AUTO 35006KT 10SM SCT050 03/M02 A2999 RMK AO2
 
KWVI - Watsonville, California, USA
Distance from station: ΝΝΑ 44km
Ενημερώθηκε: 30/01/2023 12:53
Αίθριος
Αίθριος
 Ανεμος από calm
Ανεμος: Απνοια
Θερμοκρασία: 3°C
Σημείο Δρόσου: 2°C
Υγρασία: 93%
Βαρόμετρο: 1014.6 hPa
Clouds: Αίθριος
Visibility: 16 km
2023/01/30 10:53 KWVI 301053Z AUTO 00000KT 10SM CLR 03/02 A2996 RMK AO2 SLP144 T00330017
KHAF - Half Moon Bay, California, USA
Distance from station: ΔΒΔ 50km
Ενημερώθηκε: 30/01/2023 13:15
Αίθριος
Αίθριος
 Ανεμος από varies
Ανεμος: varies 7 km/h, Ριπή: 35 km/h
Θερμοκρασία: 7°C
Wind Chill: 6°C
Σημείο Δρόσου: -8°C
Υγρασία: 34%
Βαρόμετρο: 1014.2 hPa
Clouds: Αίθριος
Visibility: 16 km
2023/01/30 11:15 KHAF 301115Z AUTO VRB04G19KT 10SM CLR 07/M08 A2995 RMK AO2
 
KHWD - Hayward, California, USA
Distance from station: Β 44km
Ενημερώθηκε: 30/01/2023 12:54
Αίθριος
Αίθριος
 Ανεμος από calm
Ανεμος: Απνοια
Θερμοκρασία: 7°C
Σημείο Δρόσου: -9°C
Υγρασία: 31%
Βαρόμετρο: 1015.6 hPa
Clouds: Αίθριος
Visibility: 16 km
2023/01/30 10:54 KHWD 301054Z AUTO 00000KT 10SM CLR 07/M09 A2999 RMK AO2 SLP163 T00671089 $
KLVK - Livermore, California, USA
Distance from station: ΒΒΑ 51km
Ενημερώθηκε: 30/01/2023 12:53
Αίθριος
Αίθριος
 Ανεμος από Α
Ανεμος: Α 9 km/h
Θερμοκρασία: 3°C
Wind Chill: 0°C
Σημείο Δρόσου: -8°C
Υγρασία: 45%
Βαρόμετρο: 1015.6 hPa
Clouds: Αίθριος
Visibility: 16 km
2023/01/30 10:53 KLVK 301053Z AUTO 10005KT 10SM CLR 03/M08 A2999 RMK AO2 SLP157 T00331083